createdAt,value
2024-02-01T00:02:03.356Z,2.78
2024-02-01T00:04:29.929Z,2.77
2024-02-01T00:06:56.611Z,2.75
2024-02-01T00:09:23.291Z,2.73
2024-02-01T00:11:49.881Z,2.69
2024-02-01T00:14:16.477Z,2.66
2024-02-01T00:16:43.006Z,2.65
2024-02-01T00:19:09.651Z,2.65
2024-02-01T00:21:36.476Z,2.65
2024-02-01T00:24:03.066Z,2.65
2024-02-01T00:26:29.737Z,2.66
2024-02-01T00:28:56.213Z,2.68
2024-02-01T00:31:22.632Z,2.69
2024-02-01T00:33:49.246Z,2.69
2024-02-01T00:36:15.994Z,2.68
2024-02-01T00:38:42.463Z,2.67
2024-02-01T00:41:09.266Z,2.66
2024-02-01T00:43:35.658Z,2.64
2024-02-01T00:46:02.126Z,2.63
2024-02-01T00:48:28.761Z,2.64
2024-02-01T00:50:55.243Z,2.65
2024-02-01T00:53:21.837Z,2.65
2024-02-01T00:55:48.471Z,2.64
2024-02-01T00:58:15.006Z,2.64
2024-02-01T01:00:41.650Z,2.62
2024-02-01T01:03:08.464Z,2.59
2024-02-01T01:05:34.954Z,2.57
2024-02-01T01:08:01.707Z,2.55
2024-02-01T01:10:28.705Z,2.55
2024-02-01T01:12:55.170Z,2.56
2024-02-01T01:15:21.808Z,2.58
2024-02-01T01:17:48.590Z,2.60
2024-02-01T01:20:15.415Z,2.62
2024-02-01T01:22:42.434Z,2.64
2024-02-01T01:25:09.041Z,2.66
2024-02-01T01:27:35.572Z,2.67
2024-02-01T01:30:02.046Z,2.67
2024-02-01T01:32:28.650Z,2.64
2024-02-01T01:34:55.222Z,2.62
2024-02-01T01:37:21.717Z,2.60
2024-02-01T01:39:48.243Z,2.61
2024-02-01T01:42:14.812Z,2.60
2024-02-01T01:44:41.416Z,2.61
2024-02-01T01:47:07.984Z,2.63
2024-02-01T01:49:34.611Z,2.65
2024-02-01T01:52:01.158Z,2.66
2024-02-01T01:54:28.106Z,2.68
2024-02-01T01:56:54.576Z,2.68
2024-02-01T01:59:21.037Z,2.68
2024-02-01T02:01:47.490Z,2.67
2024-02-01T02:04:13.951Z,2.64
2024-02-01T02:06:40.503Z,2.61
2024-02-01T02:09:07.137Z,2.58
2024-02-01T02:11:33.658Z,2.55
2024-02-01T02:14:00.237Z,2.54
2024-02-01T02:16:26.779Z,2.53
2024-02-01T02:18:53.403Z,2.55
2024-02-01T02:21:20.390Z,2.54
2024-02-01T02:23:47.024Z,2.55
2024-02-01T02:26:13.436Z,2.53
2024-02-01T02:28:39.999Z,2.52
2024-02-01T02:31:06.624Z,2.50
2024-02-01T02:33:33.456Z,2.49
2024-02-01T02:36:00.131Z,2.46
2024-02-01T02:38:27.020Z,2.45
2024-02-01T02:40:53.651Z,2.44
2024-02-01T02:43:20.206Z,2.43
2024-02-01T02:45:46.860Z,2.42
2024-02-01T02:48:13.612Z,2.41
2024-02-01T02:50:40.228Z,2.40
2024-02-01T02:53:06.837Z,2.39
2024-02-01T02:55:33.255Z,2.35
2024-02-01T02:57:59.809Z,2.31
2024-02-01T03:00:26.442Z,2.26
2024-02-01T03:02:53.215Z,2.21
2024-02-01T03:05:19.824Z,2.16
2024-02-01T03:07:46.354Z,2.15
2024-02-01T03:10:12.896Z,2.14
2024-02-01T03:12:39.303Z,2.14
2024-02-01T03:15:05.755Z,2.13
2024-02-01T03:17:32.213Z,2.12
2024-02-01T03:19:58.750Z,2.14
2024-02-01T03:22:25.182Z,2.14
2024-02-01T03:24:51.790Z,2.14
2024-02-01T03:27:18.321Z,2.13
2024-02-01T03:29:45.378Z,2.11
2024-02-01T03:32:12.165Z,2.08
2024-02-01T03:34:38.650Z,2.05
2024-02-01T03:37:05.178Z,2.03
2024-02-01T03:39:31.719Z,2.00
2024-02-01T03:41:58.186Z,1.97
2024-02-01T03:44:24.792Z,1.94
2024-02-01T03:46:51.332Z,1.93
2024-02-01T03:49:18.030Z,1.93
2024-02-01T03:51:44.649Z,1.95
2024-02-01T03:54:11.394Z,1.96
2024-02-01T03:56:38.196Z,1.97
2024-02-01T03:59:04.822Z,1.95
2024-02-01T04:01:31.690Z,1.94
2024-02-01T04:03:58.232Z,1.94
2024-02-01T04:06:24.972Z,1.93
2024-02-01T04:08:51.634Z,1.93
2024-02-01T04:11:18.201Z,1.93
2024-02-01T04:13:44.672Z,1.92
2024-02-01T04:16:11.196Z,1.92
2024-02-01T04:18:37.722Z,1.91
2024-02-01T04:21:04.377Z,1.91
2024-02-01T04:23:30.977Z,1.91
2024-02-01T04:25:57.516Z,1.91
2024-02-01T04:28:24.086Z,1.90
2024-02-01T04:30:50.684Z,1.89
2024-02-01T04:33:17.324Z,1.89
2024-02-01T04:35:43.969Z,1.87
2024-02-01T04:38:10.380Z,1.87
2024-02-01T04:40:36.822Z,1.87
2024-02-01T04:43:03.349Z,1.88
2024-02-01T04:45:29.987Z,1.88
2024-02-01T04:47:56.573Z,1.88
2024-02-01T04:50:23.172Z,1.85
2024-02-01T04:52:49.693Z,1.83
2024-02-01T04:55:16.181Z,1.80
2024-02-01T04:57:42.762Z,1.75
2024-02-01T05:00:09.319Z,1.72
2024-02-01T05:02:35.890Z,1.69
2024-02-01T05:05:02.477Z,1.67
2024-02-01T05:07:28.946Z,1.66
2024-02-01T05:09:55.541Z,1.65
2024-02-01T05:12:22.126Z,1.64
2024-02-01T05:14:48.778Z,1.63
2024-02-01T05:17:15.357Z,1.62
2024-02-01T05:19:41.904Z,1.61
2024-02-01T05:22:08.664Z,1.60
2024-02-01T05:24:35.370Z,1.57
2024-02-01T05:27:01.916Z,1.54
2024-02-01T05:29:28.448Z,1.49
2024-02-01T05:31:54.980Z,1.45
2024-02-01T05:34:21.583Z,1.42
2024-02-01T05:36:48.398Z,1.41
2024-02-01T05:39:14.931Z,1.42
2024-02-01T05:41:41.537Z,1.44
2024-02-01T05:44:08.059Z,1.46
2024-02-01T05:46:34.514Z,1.50
2024-02-01T05:49:01.176Z,1.50
2024-02-01T05:51:27.767Z,1.51
2024-02-01T05:53:54.321Z,1.50
2024-02-01T05:56:20.844Z,1.47
2024-02-01T05:58:47.285Z,1.43
2024-02-01T06:01:13.737Z,1.38
2024-02-01T06:03:40.279Z,1.36
2024-02-01T06:06:06.943Z,1.36
2024-02-01T06:08:33.609Z,1.36
2024-02-01T06:11:00.230Z,1.36
2024-02-01T06:13:26.695Z,1.36
2024-02-01T06:15:53.305Z,1.36
2024-02-01T06:18:19.910Z,1.35
2024-02-01T06:20:46.693Z,1.34
2024-02-01T06:23:13.125Z,1.33
2024-02-01T06:25:39.601Z,1.31
2024-02-01T06:28:06.177Z,1.27
2024-02-01T06:30:32.643Z,1.24
2024-02-01T06:32:59.200Z,1.22
2024-02-01T06:35:25.936Z,1.22
2024-02-01T06:37:52.540Z,1.23
2024-02-01T06:40:19.068Z,1.26
2024-02-01T06:42:45.563Z,1.29
2024-02-01T06:45:12.043Z,1.31
2024-02-01T06:47:38.662Z,1.35
2024-02-01T06:50:05.339Z,1.41
2024-02-01T06:52:32.099Z,1.45
2024-02-01T06:54:58.574Z,1.49
2024-02-01T06:57:25.114Z,1.50
2024-02-01T06:59:51.761Z,1.50
2024-02-01T07:02:18.187Z,1.50
2024-02-01T07:04:44.641Z,1.52
2024-02-01T07:07:11.535Z,1.54
2024-02-01T07:09:38.127Z,1.58
2024-02-01T07:12:04.589Z,1.61
2024-02-01T07:14:31.010Z,1.65
2024-02-01T07:16:57.438Z,1.69
2024-02-01T07:19:24.142Z,1.73
2024-02-01T07:21:50.876Z,1.76
2024-02-01T07:24:17.385Z,1.80
2024-02-01T07:26:43.851Z,1.84
2024-02-01T07:29:10.295Z,1.85
2024-02-01T07:31:36.807Z,1.88
2024-02-01T07:34:03.474Z,1.92
2024-02-01T07:36:30.002Z,1.95
2024-02-01T07:38:56.457Z,1.99
2024-02-01T07:41:23.046Z,2.07
2024-02-01T07:43:49.453Z,2.16
2024-02-01T07:46:16.068Z,2.23
2024-02-01T07:48:42.630Z,2.28
2024-02-01T07:51:09.182Z,2.31
2024-02-01T07:53:35.680Z,2.35
2024-02-01T07:56:02.181Z,2.39
2024-02-01T07:58:28.577Z,2.44
2024-02-01T08:00:55.072Z,2.50
2024-02-01T08:03:21.735Z,2.54
2024-02-01T08:05:49.465Z,2.58
2024-02-01T08:08:15.994Z,2.64
2024-02-01T08:10:42.473Z,2.70
2024-02-01T08:13:08.928Z,2.72
2024-02-01T08:15:35.381Z,2.74
2024-02-01T08:18:01.965Z,2.76
2024-02-01T08:20:32.319Z,2.79
2024-02-01T08:22:59.966Z,2.82
2024-02-01T08:25:26.495Z,2.86
2024-02-01T08:27:52.979Z,2.92
2024-02-01T08:30:19.733Z,3.00
2024-02-01T08:32:46.408Z,3.05
2024-02-01T08:35:13.078Z,3.08
2024-02-01T08:37:39.689Z,3.12
2024-02-01T08:40:06.217Z,3.15
2024-02-01T08:42:34.482Z,3.16
2024-02-01T08:45:01.575Z,3.15
2024-02-01T08:47:28.055Z,3.15
2024-02-01T08:49:54.575Z,3.15
2024-02-01T08:52:21.145Z,3.17
2024-02-01T08:54:50.476Z,3.20
2024-02-01T08:57:17.442Z,3.24
2024-02-01T08:59:43.974Z,3.27
2024-02-01T09:02:10.452Z,3.30
2024-02-01T09:04:36.960Z,3.30
2024-02-01T09:07:03.653Z,3.29
2024-02-01T09:09:30.605Z,3.29
2024-02-01T09:11:57.446Z,3.29
2024-02-01T09:14:23.903Z,3.29
2024-02-01T09:16:50.341Z,3.28
2024-02-01T09:19:16.951Z,3.29
2024-02-01T09:21:43.650Z,3.31
2024-02-01T09:24:10.118Z,3.32
2024-02-01T09:26:36.601Z,3.33
2024-02-01T09:29:03.005Z,3.32
2024-02-01T09:31:29.519Z,3.32
2024-02-01T09:33:56.124Z,3.30
2024-02-01T09:36:22.759Z,3.31
2024-02-01T09:38:49.447Z,3.31
2024-02-01T09:41:16.037Z,3.33
2024-02-01T09:43:42.472Z,3.35
2024-02-01T09:46:08.890Z,3.38
2024-02-01T09:48:35.418Z,3.41
2024-02-01T09:51:02.000Z,3.47
2024-02-01T09:53:28.476Z,3.49
2024-02-01T09:55:54.899Z,3.49
2024-02-01T09:58:21.317Z,3.49
2024-02-01T10:00:47.776Z,3.53
2024-02-01T10:03:14.279Z,3.57
2024-02-01T10:05:40.889Z,3.60
2024-02-01T10:08:07.306Z,3.63
2024-02-01T10:10:33.727Z,3.63
2024-02-01T10:13:00.448Z,3.62
2024-02-01T10:15:26.913Z,3.60
2024-02-01T10:17:53.575Z,3.59
2024-02-01T10:20:20.398Z,3.59
2024-02-01T10:22:46.819Z,3.60
2024-02-01T10:25:13.240Z,3.63
2024-02-01T10:27:39.702Z,3.65
2024-02-01T10:30:06.267Z,3.66
2024-02-01T10:32:32.899Z,3.65
2024-02-01T10:34:59.440Z,3.63
2024-02-01T10:37:26.477Z,3.61
2024-02-01T10:39:52.966Z,3.59
2024-02-01T10:42:19.501Z,3.60
2024-02-01T10:44:46.003Z,3.60
2024-02-01T10:47:12.467Z,3.60
2024-02-01T10:49:39.299Z,3.61
2024-02-01T10:52:05.849Z,3.59
2024-02-01T10:54:33.599Z,3.57
2024-02-01T10:59:52.099Z,3.49
2024-02-01T11:02:18.580Z,3.47
2024-02-01T11:04:45.028Z,3.45
2024-02-01T11:07:18.660Z,3.42
2024-02-01T11:09:45.476Z,3.40
2024-02-01T11:12:12.107Z,3.38
2024-02-01T11:14:38.597Z,3.37
2024-02-01T11:17:05.294Z,3.38
2024-02-01T11:19:34.270Z,3.39
2024-02-01T11:22:03.269Z,3.42
2024-02-01T11:24:29.704Z,3.41
2024-02-01T11:26:56.486Z,3.39
2024-02-01T11:29:23.191Z,3.37
2024-02-01T11:31:52.248Z,3.37
2024-02-01T11:34:19.134Z,3.35
2024-02-01T11:36:45.747Z,3.34
2024-02-01T11:39:12.512Z,3.35
2024-02-01T11:41:39.007Z,3.35
2024-02-01T11:44:05.466Z,3.35
2024-02-01T11:46:31.921Z,3.35
2024-02-01T11:48:58.456Z,3.36
2024-02-01T11:51:25.171Z,3.35
2024-02-01T11:53:54.674Z,3.34
2024-02-01T11:56:21.119Z,3.32
2024-02-01T11:58:47.568Z,3.31
2024-02-01T12:01:16.704Z,3.29
2024-02-01T12:03:43.714Z,3.28
2024-02-01T12:06:10.212Z,3.27
2024-02-01T12:08:36.821Z,3.28
2024-02-01T12:11:03.269Z,3.31
2024-02-01T12:13:29.824Z,3.32
2024-02-01T12:15:56.359Z,3.31
2024-02-01T12:18:23.255Z,3.31
2024-02-01T12:20:50.071Z,3.31
2024-02-01T12:23:16.727Z,3.31
2024-02-01T12:25:43.132Z,3.32
2024-02-01T12:28:09.538Z,3.33
2024-02-01T12:30:35.997Z,3.29
2024-02-01T12:33:02.594Z,3.29
2024-02-01T12:35:29.159Z,3.29
2024-02-01T12:37:55.586Z,3.29
2024-02-01T12:40:22.109Z,3.29
2024-02-01T12:42:48.546Z,3.31
2024-02-01T12:45:15.159Z,3.33
2024-02-01T12:47:41.884Z,3.34
2024-02-01T12:50:08.464Z,3.32
2024-02-01T12:52:34.898Z,3.29
2024-02-01T12:55:01.627Z,3.28
2024-02-01T12:57:28.092Z,3.27
2024-02-01T12:59:54.750Z,3.28
2024-02-01T13:02:21.334Z,3.27
2024-02-01T13:04:47.865Z,3.26
2024-02-01T13:07:14.292Z,3.25
2024-02-01T13:09:40.728Z,3.25
2024-02-01T13:12:07.469Z,3.25
2024-02-01T13:14:36.745Z,3.26
2024-02-01T13:17:04.434Z,3.29
2024-02-01T13:19:30.926Z,3.31
2024-02-01T13:21:57.384Z,3.32
2024-02-01T13:24:24.016Z,3.31
2024-02-01T13:26:50.764Z,3.32
2024-02-01T13:29:17.350Z,3.32
2024-02-01T13:31:43.751Z,3.32
2024-02-01T13:34:10.344Z,3.32
2024-02-01T13:36:37.016Z,3.33
2024-02-01T13:39:03.472Z,3.34
2024-02-01T13:41:29.942Z,3.36
2024-02-01T13:43:58.765Z,3.36
2024-02-01T13:46:27.819Z,3.37
2024-02-01T13:48:54.338Z,3.37
2024-02-01T13:51:20.966Z,3.38
2024-02-01T13:53:47.436Z,3.39
2024-02-01T13:56:13.934Z,3.40
2024-02-01T13:58:40.385Z,3.41
2024-02-01T14:01:06.974Z,3.42
2024-02-01T14:03:33.680Z,3.41
2024-02-01T14:06:01.714Z,3.42
2024-02-01T14:08:28.303Z,3.44
2024-02-01T14:10:55.298Z,3.46
2024-02-01T14:13:21.806Z,3.48
2024-02-01T14:15:48.221Z,3.48
2024-02-01T14:18:14.727Z,3.47
2024-02-01T14:20:41.455Z,3.45
2024-02-01T14:23:08.378Z,3.44
2024-02-01T14:25:34.800Z,3.41
2024-02-01T14:28:01.214Z,3.40
2024-02-01T14:30:28.786Z,3.42
2024-02-01T14:32:55.360Z,3.44
2024-02-01T14:35:21.987Z,3.44
2024-02-01T14:37:48.424Z,3.46
2024-02-01T14:40:15.709Z,3.46
2024-02-01T14:42:42.472Z,3.45
2024-02-01T14:45:08.984Z,3.43
2024-02-01T14:47:35.606Z,3.41
2024-02-01T14:50:02.095Z,3.37
2024-02-01T14:52:28.502Z,3.35
2024-02-01T14:54:54.900Z,3.32
2024-02-01T14:57:21.412Z,3.32
2024-02-01T14:59:47.851Z,3.31
2024-02-01T15:02:14.259Z,3.30
2024-02-01T15:04:40.696Z,3.31
2024-02-01T15:07:07.184Z,3.30
2024-02-01T15:09:33.699Z,3.29
2024-02-01T15:12:00.251Z,3.28
2024-02-01T15:14:26.688Z,3.28
2024-02-01T15:16:53.102Z,3.28
2024-02-01T15:19:19.668Z,3.28
2024-02-01T15:21:46.276Z,3.27
2024-02-01T15:24:12.678Z,3.27
2024-02-01T15:26:39.096Z,3.27
2024-02-01T15:29:05.523Z,3.25
2024-02-01T15:31:31.931Z,3.24
2024-02-01T15:33:58.525Z,3.21
2024-02-01T15:36:25.202Z,3.16
2024-02-01T15:38:51.775Z,3.09
2024-02-01T15:41:18.255Z,3.04
2024-02-01T15:43:44.697Z,3.00
2024-02-01T15:46:11.124Z,2.96
2024-02-01T15:48:37.709Z,2.92
2024-02-01T15:51:04.415Z,2.86
2024-02-01T15:53:30.847Z,2.80
2024-02-01T15:55:57.278Z,2.74
2024-02-01T15:58:23.716Z,2.69
2024-02-01T16:00:50.160Z,2.66
2024-02-01T16:03:16.784Z,2.63
2024-02-01T16:05:43.332Z,2.63
2024-02-01T16:08:09.811Z,2.64
2024-02-01T16:10:36.247Z,2.66
2024-02-01T16:13:02.658Z,2.68
2024-02-01T16:15:29.152Z,2.67
2024-02-01T16:17:55.654Z,2.67
2024-02-01T16:20:22.123Z,2.65
2024-02-01T16:22:48.603Z,2.63
2024-02-01T16:25:15.049Z,2.60
2024-02-01T16:27:41.472Z,2.57
2024-02-01T16:30:08.420Z,2.56
2024-02-01T16:32:35.071Z,2.58
2024-02-01T16:35:01.566Z,2.58
2024-02-01T16:37:28.163Z,2.56
2024-02-01T16:39:54.582Z,2.53
2024-02-01T16:42:21.056Z,2.49
2024-02-01T16:44:47.726Z,2.46
2024-02-01T16:47:14.294Z,2.43
2024-02-01T16:49:41.156Z,2.41
2024-02-01T16:52:15.285Z,2.38
2024-02-01T16:54:44.941Z,2.34
2024-02-01T16:57:11.470Z,2.31
2024-02-01T16:59:37.940Z,2.28
2024-02-01T17:02:04.361Z,2.24
2024-02-01T17:04:31.041Z,2.19
2024-02-01T17:06:57.652Z,2.15
2024-02-01T17:09:24.437Z,2.12
2024-02-01T17:11:51.159Z,2.08
2024-02-01T17:14:17.559Z,2.06
2024-02-01T17:16:43.973Z,2.04
2024-02-01T17:19:10.513Z,2.03
2024-02-01T17:21:37.014Z,2.02
2024-02-01T17:24:05.342Z,2.02
2024-02-01T17:26:33.686Z,2.02
2024-02-01T17:29:00.148Z,2.01
2024-02-01T17:31:26.592Z,2.01
2024-02-01T17:33:53.402Z,1.99
2024-02-01T17:36:20.195Z,1.98
2024-02-01T17:38:46.730Z,1.95
2024-02-01T17:41:13.202Z,1.91
2024-02-01T17:43:39.661Z,1.87
2024-02-01T17:46:06.095Z,1.83
2024-02-01T17:48:32.602Z,1.82
2024-02-01T17:50:59.194Z,1.84
2024-02-01T17:53:25.667Z,1.93
2024-02-01T17:55:52.125Z,1.98
2024-02-01T17:58:18.548Z,1.99
2024-02-01T18:00:45.065Z,1.98
2024-02-01T18:03:11.530Z,1.98
2024-02-01T18:05:37.982Z,2.00
2024-02-01T18:08:04.521Z,2.02
2024-02-01T18:10:30.936Z,2.04
2024-02-01T18:12:57.381Z,2.07
2024-02-01T18:15:23.833Z,2.08
2024-02-01T18:17:50.371Z,2.08
2024-02-01T18:20:17.140Z,2.08
2024-02-01T18:22:43.569Z,2.08
2024-02-01T18:25:10.016Z,2.06
2024-02-01T18:27:36.451Z,2.03
2024-02-01T18:30:03.555Z,2.02
2024-02-01T18:32:30.422Z,2.02
2024-02-01T18:34:57.186Z,2.01
2024-02-01T18:37:23.908Z,2.00
2024-02-01T18:39:50.445Z,2.01
2024-02-01T18:42:16.937Z,2.01
2024-02-01T18:44:43.373Z,2.00
2024-02-01T18:47:09.857Z,1.99
2024-02-01T18:49:36.611Z,2.00
2024-02-01T18:52:03.228Z,1.99
2024-02-01T18:54:29.684Z,1.98
2024-02-01T18:56:56.151Z,1.97
2024-02-01T18:59:22.621Z,1.95
2024-02-01T19:01:49.078Z,1.96
2024-02-01T19:04:15.516Z,1.97
2024-02-01T19:06:41.997Z,2.01
2024-02-01T19:09:08.568Z,2.04
2024-02-01T19:11:35.116Z,2.06
2024-02-01T19:14:01.613Z,2.08
2024-02-01T19:16:28.189Z,2.10
2024-02-01T19:18:54.833Z,2.10
2024-02-01T19:21:22.349Z,2.10
2024-02-01T19:23:48.975Z,2.08
2024-02-01T19:26:15.419Z,2.07
2024-02-01T19:28:41.846Z,2.05
2024-02-01T19:31:08.286Z,2.05
2024-02-01T19:33:34.983Z,2.05
2024-02-01T19:36:01.557Z,2.07
2024-02-01T19:38:28.551Z,2.10
2024-02-01T19:40:55.071Z,2.15
2024-02-01T19:43:21.605Z,2.19
2024-02-01T19:45:48.020Z,2.23
2024-02-01T19:48:15.034Z,2.28
2024-02-01T19:50:41.679Z,2.30
2024-02-01T19:53:08.190Z,2.33
2024-02-01T19:55:34.624Z,2.36
2024-02-01T19:58:01.033Z,2.40
2024-02-01T20:00:27.716Z,2.44
2024-02-01T20:02:54.396Z,2.48
2024-02-01T20:05:20.949Z,2.52
2024-02-01T20:07:47.340Z,2.55
2024-02-01T20:10:13.889Z,2.58
2024-02-01T20:12:40.381Z,2.59
2024-02-01T20:15:06.800Z,2.57
2024-02-01T20:17:33.235Z,2.56
2024-02-01T20:19:59.735Z,2.53
2024-02-01T20:22:30.721Z,2.51
2024-02-01T20:24:57.141Z,2.49
2024-02-01T20:27:24.462Z,2.45
2024-02-01T20:29:51.095Z,2.43
2024-02-01T20:32:17.522Z,2.43
2024-02-01T20:34:43.984Z,2.42
2024-02-01T20:37:10.418Z,2.43
2024-02-01T20:39:36.835Z,2.45
2024-02-01T20:42:03.313Z,2.47
2024-02-01T20:44:29.769Z,2.49
2024-02-01T20:46:56.184Z,2.51
2024-02-01T20:49:22.723Z,2.52
2024-02-01T20:51:49.273Z,2.53
2024-02-01T20:54:15.833Z,2.54
2024-02-01T20:56:42.337Z,2.55
2024-02-01T20:59:08.777Z,2.57
2024-02-01T21:01:35.214Z,2.60
2024-02-01T21:04:01.672Z,2.65
2024-02-01T21:06:28.344Z,2.72
2024-02-01T21:08:55.093Z,2.79
2024-02-01T21:11:21.631Z,2.85
2024-02-01T21:13:48.042Z,2.89
2024-02-01T21:16:14.470Z,2.91
2024-02-01T21:18:41.016Z,2.93
2024-02-01T21:21:07.659Z,2.96
2024-02-01T21:23:34.220Z,2.99
2024-02-01T21:26:07.532Z,3.03
2024-02-01T21:28:34.601Z,3.05
2024-02-01T21:31:01.066Z,3.05
2024-02-01T21:33:27.578Z,3.04
2024-02-01T21:35:54.411Z,3.03
2024-02-01T21:38:20.919Z,3.03
2024-02-01T21:40:47.356Z,3.02
2024-02-01T21:43:13.789Z,2.99
2024-02-01T21:45:40.226Z,2.96
2024-02-01T21:48:07.129Z,2.95
2024-02-01T21:50:33.603Z,2.94
2024-02-01T21:53:00.050Z,2.92
2024-02-01T21:55:26.548Z,2.89
2024-02-01T21:57:53.095Z,2.86
2024-02-01T22:00:19.627Z,2.84
2024-02-01T22:02:46.142Z,2.83
2024-02-01T22:05:12.682Z,2.82
2024-02-01T22:07:39.123Z,2.85
2024-02-01T22:10:05.544Z,2.87
2024-02-01T22:12:32.001Z,2.91
2024-02-01T22:14:59.358Z,2.93
2024-02-01T22:17:25.994Z,2.94
2024-02-01T22:19:52.544Z,2.92
2024-02-01T22:22:19.034Z,2.90
2024-02-01T22:24:45.455Z,2.92
2024-02-01T22:27:12.218Z,2.91
2024-02-01T22:29:38.748Z,2.69
2024-02-01T22:32:05.184Z,2.54
2024-02-01T22:34:31.685Z,2.43
2024-02-01T22:36:58.181Z,2.33
2024-02-01T22:39:24.689Z,2.25
2024-02-01T22:41:51.164Z,2.17
2024-02-01T22:44:17.608Z,2.12
2024-02-01T22:46:44.045Z,2.10
2024-02-01T22:49:10.859Z,1.98
2024-02-01T22:51:37.532Z,1.58
2024-02-01T22:54:04.168Z,1.29
2024-02-01T22:56:30.750Z,1.17
2024-02-01T22:58:57.148Z,1.10
2024-02-01T23:01:23.582Z,1.09
2024-02-01T23:03:50.144Z,1.11
2024-02-01T23:06:16.718Z,1.11
2024-02-01T23:08:43.198Z,1.11
2024-02-01T23:11:09.841Z,1.12
2024-02-01T23:13:36.257Z,1.14
2024-02-01T23:16:02.703Z,1.16
2024-02-01T23:18:29.248Z,1.16
2024-02-01T23:20:56.018Z,1.16
2024-02-01T23:23:23.033Z,1.16
2024-02-01T23:25:49.442Z,1.17
2024-02-01T23:28:15.955Z,1.19
2024-02-01T23:30:42.419Z,1.23
2024-02-01T23:33:08.975Z,1.29
2024-02-01T23:35:35.518Z,1.31
2024-02-01T23:38:01.980Z,1.32
2024-02-01T23:40:28.404Z,1.32
2024-02-01T23:42:54.842Z,1.31
2024-02-01T23:45:21.286Z,1.32
2024-02-01T23:47:47.828Z,1.33
2024-02-01T23:50:14.401Z,1.33
2024-02-01T23:52:40.834Z,1.34
2024-02-01T23:55:07.271Z,1.35
2024-02-01T23:57:33.763Z,1.35
